sensor_id;sensor_type;location;lat;lon;timestamp;temperature;humidity
14473;DHT22;7322;50.872;4.386;2023-07-08T00:00:44;26.60;98.90
14473;DHT22;7322;50.872;4.386;2023-07-08T00:03:15;26.60;98.90
14473;DHT22;7322;50.872;4.386;2023-07-08T00:05:43;26.60;98.90
14473;DHT22;7322;50.872;4.386;2023-07-08T00:08:17;26.60;98.90
14473;DHT22;7322;50.872;4.386;2023-07-08T00:10:48;26.60;98.90
14473;DHT22;7322;50.872;4.386;2023-07-08T00:13:17;26.60;98.90
14473;DHT22;7322;50.872;4.386;2023-07-08T00:15:53;26.60;99.30
14473;DHT22;7322;50.872;4.386;2023-07-08T00:18:22;26.60;98.90
14473;DHT22;7322;50.872;4.386;2023-07-08T00:20:51;26.60;98.90
14473;DHT22;7322;50.872;4.386;2023-07-08T00:23:53;26.60;98.90
14473;DHT22;7322;50.872;4.386;2023-07-08T00:26:23;26.60;98.90
14473;DHT22;7322;50.872;4.386;2023-07-08T00:28:53;26.60;99.00
14473;DHT22;7322;50.872;4.386;2023-07-08T00:31:22;26.60;99.00
14473;DHT22;7322;50.872;4.386;2023-07-08T00:33:58;26.60;99.10
14473;DHT22;7322;50.872;4.386;2023-07-08T00:36:26;26.60;99.10
14473;DHT22;7322;50.872;4.386;2023-07-08T00:38:55;26.60;99.10
14473;DHT22;7322;50.872;4.386;2023-07-08T00:41:30;26.60;99.10
14473;DHT22;7322;50.872;4.386;2023-07-08T00:43:59;26.60;99.10
14473;DHT22;7322;50.872;4.386;2023-07-08T00:46:37;26.60;99.20
14473;DHT22;7322;50.872;4.386;2023-07-08T00:52:18;26.60;99.20
14473;DHT22;7322;50.872;4.386;2023-07-08T00:54:52;26.60;99.20
14473;DHT22;7322;50.872;4.386;2023-07-08T00:57:21;26.60;99.20
14473;DHT22;7322;50.872;4.386;2023-07-08T00:59:53;26.60;99.20
14473;DHT22;7322;50.872;4.386;2023-07-08T01:05:37;26.60;99.20
14473;DHT22;7322;50.872;4.386;2023-07-08T01:08:11;26.60;99.30
14473;DHT22;7322;50.872;4.386;2023-07-08T01:10:45;26.60;99.40
14473;DHT22;7322;50.872;4.386;2023-07-08T01:13:15;26.60;99.50
14473;DHT22;7322;50.872;4.386;2023-07-08T01:15:47;26.60;99.60
14473;DHT22;7322;50.872;4.386;2023-07-08T01:18:18;26.60;99.60
14473;DHT22;7322;50.872;4.386;2023-07-08T01:21:00;26.60;99.60
14473;DHT22;7322;50.872;4.386;2023-07-08T01:23:35;26.60;99.70
14473;DHT22;7322;50.872;4.386;2023-07-08T01:26:04;26.60;99.70
14473;DHT22;7322;50.872;4.386;2023-07-08T01:28:37;26.50;99.70
14473;DHT22;7322;50.872;4.386;2023-07-08T01:31:05;26.60;99.80
14473;DHT22;7322;50.872;4.386;2023-07-08T01:33:33;26.60;99.80
14473;DHT22;7322;50.872;4.386;2023-07-08T01:36:08;26.60;99.90
14473;DHT22;7322;50.872;4.386;2023-07-08T01:38:49;26.60;99.90
14473;DHT22;7322;50.872;4.386;2023-07-08T01:41:22;26.60;99.90
14473;DHT22;7322;50.872;4.386;2023-07-08T01:43:59;26.60;99.90
14473;DHT22;7322;50.872;4.386;2023-07-08T01:46:27;26.50;99.90
14473;DHT22;7322;50.872;4.386;2023-07-08T01:48:57;26.50;99.90
14473;DHT22;7322;50.872;4.386;2023-07-08T01:51:28;26.60;99.90
14473;DHT22;7322;50.872;4.386;2023-07-08T01:53:59;26.60;99.90
14473;DHT22;7322;50.872;4.386;2023-07-08T01:56:34;26.60;99.90
14473;DHT22;7322;50.872;4.386;2023-07-08T01:59:02;26.60;99.90
14473;DHT22;7322;50.872;4.386;2023-07-08T02:01:39;26.50;99.90
14473;DHT22;7322;50.872;4.386;2023-07-08T02:08:02;26.60;99.90
14473;DHT22;7322;50.872;4.386;2023-07-08T02:10:42;26.50;99.90
14473;DHT22;7322;50.872;4.386;2023-07-08T02:13:16;26.50;99.90
14473;DHT22;7322;50.872;4.386;2023-07-08T02:15:59;26.50;99.90
14473;DHT22;7322;50.872;4.386;2023-07-08T02:18:34;26.60;99.90
14473;DHT22;7322;50.872;4.386;2023-07-08T02:21:19;26.50;99.90
14473;DHT22;7322;50.872;4.386;2023-07-08T02:23:52;26.50;99.90
14473;DHT22;7322;50.872;4.386;2023-07-08T02:26:37;26.50;99.90
14473;DHT22;7322;50.872;4.386;2023-07-08T02:29:41;26.50;99.90
14473;DHT22;7322;50.872;4.386;2023-07-08T02:32:24;26.30;99.90
14473;DHT22;7322;50.872;4.386;2023-07-08T02:34:53;26.30;99.90
14473;DHT22;7322;50.872;4.386;2023-07-08T02:37:19;26.30;99.90
14473;DHT22;7322;50.872;4.386;2023-07-08T02:39:51;26.40;99.90
14473;DHT22;7322;50.872;4.386;2023-07-08T02:42:19;26.40;99.90
14473;DHT22;7322;50.872;4.386;2023-07-08T02:45:12;26.40;99.90
14473;DHT22;7322;50.872;4.386;2023-07-08T02:47:39;26.50;99.90
14473;DHT22;7322;50.872;4.386;2023-07-08T02:53:16;26.50;99.90
14473;DHT22;7322;50.872;4.386;2023-07-08T02:55:51;26.50;99.90
14473;DHT22;7322;50.872;4.386;2023-07-08T02:58:21;26.40;99.90
14473;DHT22;7322;50.872;4.386;2023-07-08T03:00:51;26.40;99.90
14473;DHT22;7322;50.872;4.386;2023-07-08T03:03:24;26.40;99.90
14473;DHT22;7322;50.872;4.386;2023-07-08T03:06:10;26.40;99.90
14473;DHT22;7322;50.872;4.386;2023-07-08T03:08:52;26.50;99.90
14473;DHT22;7322;50.872;4.386;2023-07-08T03:11:21;26.40;99.90
14473;DHT22;7322;50.872;4.386;2023-07-08T03:13:51;26.40;99.90
14473;DHT22;7322;50.872;4.386;2023-07-08T03:16:32;26.50;99.90
14473;DHT22;7322;50.872;4.386;2023-07-08T03:19:02;26.40;99.90
14473;DHT22;7322;50.872;4.386;2023-07-08T03:21:41;26.50;99.90
14473;DHT22;7322;50.872;4.386;2023-07-08T03:24:10;26.40;99.90
14473;DHT22;7322;50.872;4.386;2023-07-08T03:26:49;26.40;99.90
14473;DHT22;7322;50.872;4.386;2023-07-08T03:32:49;26.50;99.90
14473;DHT22;7322;50.872;4.386;2023-07-08T03:38:55;26.50;99.90
14473;DHT22;7322;50.872;4.386;2023-07-08T03:41:27;26.40;99.90
14473;DHT22;7322;50.872;4.386;2023-07-08T03:43:55;26.40;99.90
14473;DHT22;7322;50.872;4.386;2023-07-08T03:46:23;26.40;99.90
14473;DHT22;7322;50.872;4.386;2023-07-08T03:49:07;26.40;99.90
14473;DHT22;7322;50.872;4.386;2023-07-08T03:51:42;26.40;99.90
14473;DHT22;7322;50.872;4.386;2023-07-08T03:54:24;26.50;99.90
14473;DHT22;7322;50.872;4.386;2023-07-08T03:56:57;26.40;99.90
14473;DHT22;7322;50.872;4.386;2023-07-08T03:59:27;26.40;99.90
14473;DHT22;7322;50.872;4.386;2023-07-08T04:01:59;26.40;99.90
14473;DHT22;7322;50.872;4.386;2023-07-08T04:04:46;26.40;99.90
14473;DHT22;7322;50.872;4.386;2023-07-08T04:07:20;26.40;99.90
14473;DHT22;7322;50.872;4.386;2023-07-08T04:09:48;26.40;99.90
14473;DHT22;7322;50.872;4.386;2023-07-08T04:12:18;26.40;99.90
14473;DHT22;7322;50.872;4.386;2023-07-08T04:14:47;26.40;99.90
14473;DHT22;7322;50.872;4.386;2023-07-08T04:20:42;26.50;99.90
14473;DHT22;7322;50.872;4.386;2023-07-08T04:26:08;26.40;99.90
14473;DHT22;7322;50.872;4.386;2023-07-08T04:28:35;26.40;99.90
14473;DHT22;7322;50.872;4.386;2023-07-08T04:31:11;26.40;99.90
14473;DHT22;7322;50.872;4.386;2023-07-08T04:33:41;26.40;99.90
14473;DHT22;7322;50.872;4.386;2023-07-08T04:36:13;26.40;99.90
14473;DHT22;7322;50.872;4.386;2023-07-08T04:38:43;26.40;99.90
14473;DHT22;7322;50.872;4.386;2023-07-08T04:41:12;26.40;99.90
14473;DHT22;7322;50.872;4.386;2023-07-08T04:43:53;26.40;99.90
14473;DHT22;7322;50.872;4.386;2023-07-08T04:46:41;26.40;99.90
14473;DHT22;7322;50.872;4.386;2023-07-08T04:49:18;26.40;99.90
14473;DHT22;7322;50.872;4.386;2023-07-08T04:51:53;26.40;99.90
14473;DHT22;7322;50.872;4.386;2023-07-08T04:54:20;26.40;99.90
14473;DHT22;7322;50.872;4.386;2023-07-08T04:56:49;26.40;99.90
14473;DHT22;7322;50.872;4.386;2023-07-08T04:59:20;26.40;99.90
14473;DHT22;7322;50.872;4.386;2023-07-08T05:02:19;26.40;99.90
14473;DHT22;7322;50.872;4.386;2023-07-08T05:04:55;26.40;99.90
14473;DHT22;7322;50.872;4.386;2023-07-08T05:07:34;26.40;99.90
14473;DHT22;7322;50.872;4.386;2023-07-08T05:13:10;26.50;99.90
14473;DHT22;7322;50.872;4.386;2023-07-08T05:15:44;26.40;99.90
14473;DHT22;7322;50.872;4.386;2023-07-08T05:18:44;26.40;99.90
14473;DHT22;7322;50.872;4.386;2023-07-08T05:21:15;26.40;99.90
14473;DHT22;7322;50.872;4.386;2023-07-08T05:23:56;26.40;99.90
14473;DHT22;7322;50.872;4.386;2023-07-08T05:26:31;26.40;99.90
14473;DHT22;7322;50.872;4.386;2023-07-08T05:29:20;26.40;99.90
14473;DHT22;7322;50.872;4.386;2023-07-08T05:32:05;26.40;99.90
14473;DHT22;7322;50.872;4.386;2023-07-08T05:38:13;26.40;99.90
14473;DHT22;7322;50.872;4.386;2023-07-08T05:41:05;26.40;99.90
14473;DHT22;7322;50.872;4.386;2023-07-08T05:43:44;26.40;99.90
14473;DHT22;7322;50.872;4.386;2023-07-08T05:46:19;26.40;99.90
14473;DHT22;7322;50.872;4.386;2023-07-08T05:48:46;26.40;99.90
14473;DHT22;7322;50.872;4.386;2023-07-08T05:51:22;26.40;99.90
14473;DHT22;7322;50.872;4.386;2023-07-08T05:53:58;26.40;99.90
14473;DHT22;7322;50.872;4.386;2023-07-08T05:56:32;26.40;99.90
14473;DHT22;7322;50.872;4.386;2023-07-08T05:59:10;26.40;99.90
14473;DHT22;7322;50.872;4.386;2023-07-08T06:01:37;26.40;99.90
14473;DHT22;7322;50.872;4.386;2023-07-08T06:04:06;26.40;99.90
14473;DHT22;7322;50.872;4.386;2023-07-08T06:06:35;26.40;99.90
14473;DHT22;7322;50.872;4.386;2023-07-08T06:09:02;26.40;99.90
14473;DHT22;7322;50.872;4.386;2023-07-08T06:11:33;26.40;99.90
14473;DHT22;7322;50.872;4.386;2023-07-08T06:14:28;26.50;99.90
14473;DHT22;7322;50.872;4.386;2023-07-08T06:17:06;26.50;99.90
14473;DHT22;7322;50.872;4.386;2023-07-08T06:19:37;26.50;99.90
14473;DHT22;7322;50.872;4.386;2023-07-08T06:22:14;26.40;99.90
14473;DHT22;7322;50.872;4.386;2023-07-08T06:24:42;26.40;99.90
14473;DHT22;7322;50.872;4.386;2023-07-08T06:27:11;26.40;99.90
14473;DHT22;7322;50.872;4.386;2023-07-08T06:29:49;26.50;99.90
14473;DHT22;7322;50.872;4.386;2023-07-08T06:32:18;26.50;99.90
14473;DHT22;7322;50.872;4.386;2023-07-08T06:34:55;26.50;99.90
14473;DHT22;7322;50.872;4.386;2023-07-08T06:37:23;26.50;99.90
14473;DHT22;7322;50.872;4.386;2023-07-08T06:40:04;26.40;99.90
14473;DHT22;7322;50.872;4.386;2023-07-08T06:42:38;26.50;99.90
14473;DHT22;7322;50.872;4.386;2023-07-08T06:45:06;26.40;99.90
14473;DHT22;7322;50.872;4.386;2023-07-08T06:47:41;26.40;99.90
14473;DHT22;7322;50.872;4.386;2023-07-08T06:50:08;26.50;99.90
14473;DHT22;7322;50.872;4.386;2023-07-08T06:52:35;26.50;99.90
14473;DHT22;7322;50.872;4.386;2023-07-08T06:55:11;26.50;99.90
14473;DHT22;7322;50.872;4.386;2023-07-08T06:57:55;26.50;99.90
14473;DHT22;7322;50.872;4.386;2023-07-08T07:00:41;26.60;99.90
14473;DHT22;7322;50.872;4.386;2023-07-08T07:03:11;26.60;99.90
14473;DHT22;7322;50.872;4.386;2023-07-08T07:05:46;26.50;99.90
14473;DHT22;7322;50.872;4.386;2023-07-08T07:08:15;26.60;99.90
14473;DHT22;7322;50.872;4.386;2023-07-08T07:10:43;26.50;99.90
14473;DHT22;7322;50.872;4.386;2023-07-08T07:13:30;26.60;99.90
14473;DHT22;7322;50.872;4.386;2023-07-08T07:15:59;26.60;99.90
14473;DHT22;7322;50.872;4.386;2023-07-08T07:18:26;26.60;99.90
14473;DHT22;7322;50.872;4.386;2023-07-08T07:20:54;26.60;99.90
14473;DHT22;7322;50.872;4.386;2023-07-08T07:23:21;26.60;99.90
14473;DHT22;7322;50.872;4.386;2023-07-08T07:25:52;26.60;99.90
14473;DHT22;7322;50.872;4.386;2023-07-08T07:28:20;26.60;99.90
14473;DHT22;7322;50.872;4.386;2023-07-08T07:30:55;26.60;99.90
14473;DHT22;7322;50.872;4.386;2023-07-08T07:33:23;26.60;99.90
14473;DHT22;7322;50.872;4.386;2023-07-08T07:35:52;26.60;99.90
14473;DHT22;7322;50.872;4.386;2023-07-08T07:38:19;26.60;99.90
14473;DHT22;7322;50.872;4.386;2023-07-08T07:40:48;26.70;99.90
14473;DHT22;7322;50.872;4.386;2023-07-08T07:43:15;26.70;99.90
14473;DHT22;7322;50.872;4.386;2023-07-08T07:45:42;26.70;99.90
14473;DHT22;7322;50.872;4.386;2023-07-08T07:48:10;26.70;99.90
14473;DHT22;7322;50.872;4.386;2023-07-08T07:50:37;26.80;99.90
14473;DHT22;7322;50.872;4.386;2023-07-08T07:53:04;26.80;99.90
14473;DHT22;7322;50.872;4.386;2023-07-08T07:55:31;26.80;99.90
14473;DHT22;7322;50.872;4.386;2023-07-08T07:57:58;26.80;99.90
14473;DHT22;7322;50.872;4.386;2023-07-08T08:00:25;26.80;99.90
14473;DHT22;7322;50.872;4.386;2023-07-08T08:02:52;26.80;99.90
14473;DHT22;7322;50.872;4.386;2023-07-08T08:05:23;26.80;99.90
14473;DHT22;7322;50.872;4.386;2023-07-08T08:07:50;26.80;99.90
14473;DHT22;7322;50.872;4.386;2023-07-08T08:10:17;26.80;99.90
14473;DHT22;7322;50.872;4.386;2023-07-08T08:12:45;26.80;99.90
14473;DHT22;7322;50.872;4.386;2023-07-08T08:15:16;26.80;99.90
14473;DHT22;7322;50.872;4.386;2023-07-08T08:17:43;26.80;99.90
14473;DHT22;7322;50.872;4.386;2023-07-08T08:20:14;26.80;99.90
14473;DHT22;7322;50.872;4.386;2023-07-08T08:22:43;26.90;99.90
14473;DHT22;7322;50.872;4.386;2023-07-08T08:25:10;26.90;99.90
14473;DHT22;7322;50.872;4.386;2023-07-08T08:27:37;26.90;99.90
14473;DHT22;7322;50.872;4.386;2023-07-08T08:30:05;26.90;99.90
14473;DHT22;7322;50.872;4.386;2023-07-08T08:32:32;26.90;99.90
14473;DHT22;7322;50.872;4.386;2023-07-08T08:34:59;26.90;99.90
14473;DHT22;7322;50.872;4.386;2023-07-08T08:37:26;26.90;99.90
14473;DHT22;7322;50.872;4.386;2023-07-08T08:39:55;26.90;99.90
14473;DHT22;7322;50.872;4.386;2023-07-08T08:42:27;27.00;99.90
14473;DHT22;7322;50.872;4.386;2023-07-08T08:44:57;26.90;99.90
14473;DHT22;7322;50.872;4.386;2023-07-08T08:47:33;27.00;99.90
14473;DHT22;7322;50.872;4.386;2023-07-08T08:50:05;27.00;99.90
14473;DHT22;7322;50.872;4.386;2023-07-08T08:52:42;27.00;99.70
14473;DHT22;7322;50.872;4.386;2023-07-08T08:55:13;27.00;99.60
14473;DHT22;7322;50.872;4.386;2023-07-08T08:57:47;27.00;99.80
14473;DHT22;7322;50.872;4.386;2023-07-08T09:00:18;27.00;99.60
14473;DHT22;7322;50.872;4.386;2023-07-08T09:02:56;27.00;99.70
14473;DHT22;7322;50.872;4.386;2023-07-08T09:05:26;27.10;99.60
14473;DHT22;7322;50.872;4.386;2023-07-08T09:08:02;27.00;99.50
14473;DHT22;7322;50.872;4.386;2023-07-08T09:10:42;27.10;99.40
14473;DHT22;7322;50.872;4.386;2023-07-08T09:13:18;27.10;99.30
14473;DHT22;7322;50.872;4.386;2023-07-08T09:15:47;27.10;99.20
14473;DHT22;7322;50.872;4.386;2023-07-08T09:18:19;27.10;99.00
14473;DHT22;7322;50.872;4.386;2023-07-08T09:20:48;27.10;98.90
14473;DHT22;7322;50.872;4.386;2023-07-08T09:23:20;27.10;98.60
14473;DHT22;7322;50.872;4.386;2023-07-08T09:25:54;27.10;98.30
14473;DHT22;7322;50.872;4.386;2023-07-08T09:28:35;27.20;98.10
14473;DHT22;7322;50.872;4.386;2023-07-08T09:31:06;27.20;98.00
14473;DHT22;7322;50.872;4.386;2023-07-08T09:33:37;27.20;98.10
14473;DHT22;7322;50.872;4.386;2023-07-08T09:36:19;27.20;97.70
14473;DHT22;7322;50.872;4.386;2023-07-08T09:38:49;27.20;97.50
14473;DHT22;7322;50.872;4.386;2023-07-08T09:41:29;27.20;97.60
14473;DHT22;7322;50.872;4.386;2023-07-08T09:44:05;27.30;97.70
14473;DHT22;7322;50.872;4.386;2023-07-08T09:46:36;27.30;98.00
14473;DHT22;7322;50.872;4.386;2023-07-08T09:49:13;27.30;98.40
14473;DHT22;7322;50.872;4.386;2023-07-08T09:51:41;27.30;98.50
14473;DHT22;7322;50.872;4.386;2023-07-08T09:54:10;27.30;98.40
14473;DHT22;7322;50.872;4.386;2023-07-08T09:56:43;27.30;98.10
14473;DHT22;7322;50.872;4.386;2023-07-08T09:59:12;27.30;98.10
14473;DHT22;7322;50.872;4.386;2023-07-08T10:01:41;27.30;98.10
14473;DHT22;7322;50.872;4.386;2023-07-08T10:04:09;27.30;98.10
14473;DHT22;7322;50.872;4.386;2023-07-08T10:06:36;27.30;98.00
14473;DHT22;7322;50.872;4.386;2023-07-08T10:09:05;27.40;98.20
14473;DHT22;7322;50.872;4.386;2023-07-08T10:11:41;27.40;98.30
14473;DHT22;7322;50.872;4.386;2023-07-08T10:14:21;27.40;98.40
14473;DHT22;7322;50.872;4.386;2023-07-08T10:16:49;27.40;98.40
14473;DHT22;7322;50.872;4.386;2023-07-08T10:19:18;27.40;98.40
14473;DHT22;7322;50.872;4.386;2023-07-08T10:21:55;27.50;98.50
14473;DHT22;7322;50.872;4.386;2023-07-08T10:24:41;27.40;98.60
14473;DHT22;7322;50.872;4.386;2023-07-08T10:27:21;27.50;98.60
14473;DHT22;7322;50.872;4.386;2023-07-08T10:29:53;27.50;98.60
14473;DHT22;7322;50.872;4.386;2023-07-08T10:32:28;27.50;98.60
14473;DHT22;7322;50.872;4.386;2023-07-08T10:35:03;27.50;98.60
14473;DHT22;7322;50.872;4.386;2023-07-08T10:37:43;27.50;98.60
14473;DHT22;7322;50.872;4.386;2023-07-08T10:40:28;27.50;98.60
14473;DHT22;7322;50.872;4.386;2023-07-08T10:43:16;27.50;98.50
14473;DHT22;7322;50.872;4.386;2023-07-08T10:45:53;27.60;98.60
14473;DHT22;7322;50.872;4.386;2023-07-08T10:48:39;27.50;98.50
14473;DHT22;7322;50.872;4.386;2023-07-08T10:51:17;27.60;98.50
14473;DHT22;7322;50.872;4.386;2023-07-08T10:53:55;27.60;98.40
14473;DHT22;7322;50.872;4.386;2023-07-08T10:56:33;27.60;98.40
14473;DHT22;7322;50.872;4.386;2023-07-08T10:59:17;27.60;98.50
14473;DHT22;7322;50.872;4.386;2023-07-08T11:02:02;27.60;98.50
14473;DHT22;7322;50.872;4.386;2023-07-08T11:04:47;27.60;98.50
14473;DHT22;7322;50.872;4.386;2023-07-08T11:07:28;27.70;98.70
14473;DHT22;7322;50.872;4.386;2023-07-08T11:10:02;27.70;98.70
14473;DHT22;7322;50.872;4.386;2023-07-08T11:12:35;27.70;98.80
14473;DHT22;7322;50.872;4.386;2023-07-08T11:15:13;27.70;98.80
14473;DHT22;7322;50.872;4.386;2023-07-08T11:17:46;27.70;98.80
14473;DHT22;7322;50.872;4.386;2023-07-08T11:20:18;27.70;98.90
14473;DHT22;7322;50.872;4.386;2023-07-08T11:22:49;27.70;99.00
14473;DHT22;7322;50.872;4.386;2023-07-08T11:25:21;27.80;99.00
14473;DHT22;7322;50.872;4.386;2023-07-08T11:27:54;27.80;98.90
14473;DHT22;7322;50.872;4.386;2023-07-08T11:30:28;27.80;98.90
14473;DHT22;7322;50.872;4.386;2023-07-08T11:33:02;27.80;99.00
14473;DHT22;7322;50.872;4.386;2023-07-08T11:35:37;27.80;99.00
14473;DHT22;7322;50.872;4.386;2023-07-08T11:38:12;27.80;99.00
14473;DHT22;7322;50.872;4.386;2023-07-08T11:40:52;27.90;99.20
14473;DHT22;7322;50.872;4.386;2023-07-08T11:43:21;27.90;99.30
14473;DHT22;7322;50.872;4.386;2023-07-08T11:45:54;27.80;99.40
14473;DHT22;7322;50.872;4.386;2023-07-08T11:48:25;27.90;99.60
14473;DHT22;7322;50.872;4.386;2023-07-08T11:50:54;27.90;99.70
14473;DHT22;7322;50.872;4.386;2023-07-08T11:53:35;27.90;99.80
14473;DHT22;7322;50.872;4.386;2023-07-08T11:56:18;28.00;99.90
14473;DHT22;7322;50.872;4.386;2023-07-08T11:58:58;28.00;99.90
14473;DHT22;7322;50.872;4.386;2023-07-08T12:01:32;28.00;99.90
14473;DHT22;7322;50.872;4.386;2023-07-08T12:04:23;28.00;99.90
14473;DHT22;7322;50.872;4.386;2023-07-08T12:07:09;28.00;99.90
14473;DHT22;7322;50.872;4.386;2023-07-08T12:09:38;28.10;99.90
14473;DHT22;7322;50.872;4.386;2023-07-08T12:12:17;28.00;99.90
14473;DHT22;7322;50.872;4.386;2023-07-08T12:14:46;28.10;99.90
14473;DHT22;7322;50.872;4.386;2023-07-08T12:17:15;28.00;99.90
14473;DHT22;7322;50.872;4.386;2023-07-08T12:19:44;28.10;99.90
14473;DHT22;7322;50.872;4.386;2023-07-08T12:22:13;28.10;99.90
14473;DHT22;7322;50.872;4.386;2023-07-08T12:24:42;28.10;99.90
14473;DHT22;7322;50.872;4.386;2023-07-08T12:27:10;28.10;99.90
14473;DHT22;7322;50.872;4.386;2023-07-08T12:29:38;28.20;99.90
14473;DHT22;7322;50.872;4.386;2023-07-08T12:32:08;28.20;99.90
14473;DHT22;7322;50.872;4.386;2023-07-08T12:34:37;28.20;99.90
14473;DHT22;7322;50.872;4.386;2023-07-08T12:37:04;28.20;99.90
14473;DHT22;7322;50.872;4.386;2023-07-08T12:39:37;28.20;99.90
14473;DHT22;7322;50.872;4.386;2023-07-08T12:42:10;28.20;99.90
14473;DHT22;7322;50.872;4.386;2023-07-08T12:44:38;28.20;99.90
14473;DHT22;7322;50.872;4.386;2023-07-08T12:47:07;28.30;99.90
14473;DHT22;7322;50.872;4.386;2023-07-08T12:49:36;28.30;99.90
14473;DHT22;7322;50.872;4.386;2023-07-08T12:52:04;28.30;99.90
14473;DHT22;7322;50.872;4.386;2023-07-08T12:54:31;28.30;99.90
14473;DHT22;7322;50.872;4.386;2023-07-08T12:57:00;28.30;99.90
14473;DHT22;7322;50.872;4.386;2023-07-08T12:59:27;28.30;99.90
14473;DHT22;7322;50.872;4.386;2023-07-08T13:01:56;28.30;99.90
14473;DHT22;7322;50.872;4.386;2023-07-08T13:04:23;28.30;99.90
14473;DHT22;7322;50.872;4.386;2023-07-08T13:06:51;28.30;99.90
14473;DHT22;7322;50.872;4.386;2023-07-08T13:09:39;28.30;99.90
14473;DHT22;7322;50.872;4.386;2023-07-08T13:12:15;28.30;99.90
14473;DHT22;7322;50.872;4.386;2023-07-08T13:14:42;28.30;99.90
14473;DHT22;7322;50.872;4.386;2023-07-08T13:17:12;28.30;99.90
14473;DHT22;7322;50.872;4.386;2023-07-08T13:19:40;28.30;99.90
14473;DHT22;7322;50.872;4.386;2023-07-08T13:22:12;28.20;99.90
14473;DHT22;7322;50.872;4.386;2023-07-08T13:24:41;28.20;99.90
14473;DHT22;7322;50.872;4.386;2023-07-08T13:27:14;28.10;99.90
14473;DHT22;7322;50.872;4.386;2023-07-08T13:29:43;28.10;99.90
14473;DHT22;7322;50.872;4.386;2023-07-08T13:32:10;28.00;99.90
14473;DHT22;7322;50.872;4.386;2023-07-08T13:34:39;28.00;99.90
14473;DHT22;7322;50.872;4.386;2023-07-08T13:37:12;28.00;99.90
14473;DHT22;7322;50.872;4.386;2023-07-08T13:39:44;28.00;99.90
14473;DHT22;7322;50.872;4.386;2023-07-08T13:42:11;28.00;99.90
14473;DHT22;7322;50.872;4.386;2023-07-08T13:44:43;28.00;99.90
14473;DHT22;7322;50.872;4.386;2023-07-08T13:47:21;28.00;99.90
14473;DHT22;7322;50.872;4.386;2023-07-08T13:49:51;28.10;99.90
14473;DHT22;7322;50.872;4.386;2023-07-08T13:52:22;28.00;99.90
14473;DHT22;7322;50.872;4.386;2023-07-08T13:54:52;28.00;99.90
14473;DHT22;7322;50.872;4.386;2023-07-08T13:57:22;28.00;99.90
14473;DHT22;7322;50.872;4.386;2023-07-08T13:59:49;28.10;99.90
14473;DHT22;7322;50.872;4.386;2023-07-08T14:02:19;28.00;99.90
14473;DHT22;7322;50.872;4.386;2023-07-08T14:04:47;28.00;99.90
14473;DHT22;7322;50.872;4.386;2023-07-08T14:07:17;28.00;99.90
14473;DHT22;7322;50.872;4.386;2023-07-08T14:09:46;28.10;99.90
14473;DHT22;7322;50.872;4.386;2023-07-08T14:12:14;28.10;99.90
14473;DHT22;7322;50.872;4.386;2023-07-08T14:14:41;28.10;99.90
14473;DHT22;7322;50.872;4.386;2023-07-08T14:17:10;28.10;99.90
14473;DHT22;7322;50.872;4.386;2023-07-08T14:19:39;28.10;99.90
14473;DHT22;7322;50.872;4.386;2023-07-08T14:22:21;28.10;99.90
14473;DHT22;7322;50.872;4.386;2023-07-08T14:24:50;28.20;99.90
14473;DHT22;7322;50.872;4.386;2023-07-08T14:27:18;28.10;99.90
14473;DHT22;7322;50.872;4.386;2023-07-08T14:29:48;28.10;99.90
14473;DHT22;7322;50.872;4.386;2023-07-08T14:32:20;28.20;99.90
14473;DHT22;7322;50.872;4.386;2023-07-08T14:34:51;28.20;99.90
14473;DHT22;7322;50.872;4.386;2023-07-08T14:37:18;28.20;99.90
14473;DHT22;7322;50.872;4.386;2023-07-08T14:39:46;28.20;99.90
14473;DHT22;7322;50.872;4.386;2023-07-08T14:42:17;28.20;99.90
14473;DHT22;7322;50.872;4.386;2023-07-08T14:44:46;28.20;99.90
14473;DHT22;7322;50.872;4.386;2023-07-08T14:47:16;28.20;99.90
14473;DHT22;7322;50.872;4.386;2023-07-08T14:49:43;28.20;99.90
14473;DHT22;7322;50.872;4.386;2023-07-08T14:52:10;28.20;99.90
14473;DHT22;7322;50.872;4.386;2023-07-08T14:54:38;28.20;99.90
14473;DHT22;7322;50.872;4.386;2023-07-08T14:57:09;28.20;99.90
14473;DHT22;7322;50.872;4.386;2023-07-08T14:59:39;28.20;99.90
14473;DHT22;7322;50.872;4.386;2023-07-08T15:02:19;28.20;99.90
14473;DHT22;7322;50.872;4.386;2023-07-08T15:04:47;28.20;99.90
14473;DHT22;7322;50.872;4.386;2023-07-08T15:07:14;28.20;99.90
14473;DHT22;7322;50.872;4.386;2023-07-08T15:09:42;28.20;99.90
14473;DHT22;7322;50.872;4.386;2023-07-08T15:12:10;28.20;99.90
14473;DHT22;7322;50.872;4.386;2023-07-08T15:14:40;28.20;99.90
14473;DHT22;7322;50.872;4.386;2023-07-08T15:17:13;28.20;99.90
14473;DHT22;7322;50.872;4.386;2023-07-08T15:19:42;28.20;99.90
14473;DHT22;7322;50.872;4.386;2023-07-08T15:22:09;28.20;99.90
14473;DHT22;7322;50.872;4.386;2023-07-08T15:24:36;28.20;99.90
14473;DHT22;7322;50.872;4.386;2023-07-08T15:27:04;28.20;99.90
14473;DHT22;7322;50.872;4.386;2023-07-08T15:29:33;28.30;99.90
14473;DHT22;7322;50.872;4.386;2023-07-08T15:32:02;28.30;99.90
14473;DHT22;7322;50.872;4.386;2023-07-08T15:34:29;28.30;99.90
14473;DHT22;7322;50.872;4.386;2023-07-08T15:36:56;28.30;99.90
14473;DHT22;7322;50.872;4.386;2023-07-08T15:39:23;28.30;99.90
14473;DHT22;7322;50.872;4.386;2023-07-08T15:41:50;28.30;99.90
14473;DHT22;7322;50.872;4.386;2023-07-08T15:44:18;28.30;99.90
14473;DHT22;7322;50.872;4.386;2023-07-08T15:46:51;28.40;99.90
14473;DHT22;7322;50.872;4.386;2023-07-08T15:49:21;28.40;99.90
14473;DHT22;7322;50.872;4.386;2023-07-08T15:51:49;28.40;99.90
14473;DHT22;7322;50.872;4.386;2023-07-08T15:54:17;28.50;99.90
14473;DHT22;7322;50.872;4.386;2023-07-08T15:56:46;28.50;99.90
14473;DHT22;7322;50.872;4.386;2023-07-08T15:59:17;28.50;99.90
14473;DHT22;7322;50.872;4.386;2023-07-08T16:01:44;28.50;99.90
14473;DHT22;7322;50.872;4.386;2023-07-08T16:04:22;28.50;99.90
14473;DHT22;7322;50.872;4.386;2023-07-08T16:06:50;28.60;99.90
14473;DHT22;7322;50.872;4.386;2023-07-08T16:09:17;28.60;99.90
14473;DHT22;7322;50.872;4.386;2023-07-08T16:11:44;28.60;99.90
14473;DHT22;7322;50.872;4.386;2023-07-08T16:14:14;28.70;99.90
14473;DHT22;7322;50.872;4.386;2023-07-08T16:16:42;28.70;99.90
14473;DHT22;7322;50.872;4.386;2023-07-08T16:19:10;28.70;99.90
14473;DHT22;7322;50.872;4.386;2023-07-08T16:21:39;28.70;99.90
14473;DHT22;7322;50.872;4.386;2023-07-08T16:24:06;28.70;99.90
14473;DHT22;7322;50.872;4.386;2023-07-08T16:26:34;28.70;99.90
14473;DHT22;7322;50.872;4.386;2023-07-08T16:29:01;28.80;99.90
14473;DHT22;7322;50.872;4.386;2023-07-08T16:31:28;28.80;99.90
14473;DHT22;7322;50.872;4.386;2023-07-08T16:33:56;28.80;99.90
14473;DHT22;7322;50.872;4.386;2023-07-08T16:36:26;28.90;99.90
14473;DHT22;7322;50.872;4.386;2023-07-08T16:38:55;29.00;99.90
14473;DHT22;7322;50.872;4.386;2023-07-08T16:41:24;29.10;99.90
14473;DHT22;7322;50.872;4.386;2023-07-08T16:43:52;29.20;99.90
14473;DHT22;7322;50.872;4.386;2023-07-08T16:46:21;29.30;99.90
14473;DHT22;7322;50.872;4.386;2023-07-08T16:48:48;29.40;99.90
14473;DHT22;7322;50.872;4.386;2023-07-08T16:51:16;29.70;99.90